sensor_id;sensor_type;location;lat;lon;timestamp;temperature;humidity
46752;DHT22;32497;48.936;9.270;2023-03-23T00:01:44;13.90;55.70
46752;DHT22;32497;48.936;9.270;2023-03-23T00:06:46;13.70;56.70
46752;DHT22;32497;48.936;9.270;2023-03-23T00:11:47;13.70;57.50
46752;DHT22;32497;48.936;9.270;2023-03-23T00:16:49;13.50;59.00
46752;DHT22;32497;48.936;9.270;2023-03-23T00:21:50;13.30;58.90
46752;DHT22;32497;48.936;9.270;2023-03-23T00:26:51;13.20;59.30
46752;DHT22;32497;48.936;9.270;2023-03-23T00:31:54;13.20;58.60
46752;DHT22;32497;48.936;9.270;2023-03-23T00:36:55;13.30;57.40
46752;DHT22;32497;48.936;9.270;2023-03-23T00:41:56;13.40;57.10
46752;DHT22;32497;48.936;9.270;2023-03-23T00:46:58;13.70;56.20
46752;DHT22;32497;48.936;9.270;2023-03-23T00:52:00;13.70;56.10
46752;DHT22;32497;48.936;9.270;2023-03-23T00:57:02;13.80;56.00
46752;DHT22;32497;48.936;9.270;2023-03-23T01:02:04;13.80;56.00
46752;DHT22;32497;48.936;9.270;2023-03-23T01:07:05;13.80;56.10
46752;DHT22;32497;48.936;9.270;2023-03-23T01:12:06;13.90;56.40
46752;DHT22;32497;48.936;9.270;2023-03-23T01:17:09;13.70;56.70
46752;DHT22;32497;48.936;9.270;2023-03-23T01:22:10;13.70;57.60
46752;DHT22;32497;48.936;9.270;2023-03-23T01:27:11;13.50;58.60
46752;DHT22;32497;48.936;9.270;2023-03-23T01:32:13;13.40;58.90
46752;DHT22;32497;48.936;9.270;2023-03-23T01:37:14;13.20;58.70
46752;DHT22;32497;48.936;9.270;2023-03-23T01:42:16;13.20;58.40
46752;DHT22;32497;48.936;9.270;2023-03-23T01:47:20;13.20;57.20
46752;DHT22;32497;48.936;9.270;2023-03-23T01:52:24;13.30;56.60
46752;DHT22;32497;48.936;9.270;2023-03-23T01:57:31;13.30;56.80
46752;DHT22;32497;48.936;9.270;2023-03-23T02:02:35;13.20;56.90
46752;DHT22;32497;48.936;9.270;2023-03-23T02:07:37;13.20;56.90
46752;DHT22;32497;48.936;9.270;2023-03-23T02:12:40;13.30;56.90
46752;DHT22;32497;48.936;9.270;2023-03-23T02:17:48;13.20;56.70
46752;DHT22;32497;48.936;9.270;2023-03-23T02:23:07;13.20;56.80
46752;DHT22;32497;48.936;9.270;2023-03-23T02:28:30;13.20;56.50
46752;DHT22;32497;48.936;9.270;2023-03-23T02:33:46;13.20;56.80
46752;DHT22;32497;48.936;9.270;2023-03-23T02:38:55;13.20;57.10
46752;DHT22;32497;48.936;9.270;2023-03-23T02:43:58;13.10;58.20
46752;DHT22;32497;48.936;9.270;2023-03-23T02:49:02;12.90;58.80
46752;DHT22;32497;48.936;9.270;2023-03-23T02:54:05;12.80;59.20
46752;DHT22;32497;48.936;9.270;2023-03-23T02:59:06;12.70;59.20
46752;DHT22;32497;48.936;9.270;2023-03-23T03:04:11;12.80;58.60
46752;DHT22;32497;48.936;9.270;2023-03-23T03:09:18;12.80;58.10
46752;DHT22;32497;48.936;9.270;2023-03-23T03:14:24;13.10;57.70
46752;DHT22;32497;48.936;9.270;2023-03-23T03:19:30;13.20;57.80
46752;DHT22;32497;48.936;9.270;2023-03-23T03:24:33;13.20;57.20
46752;DHT22;32497;48.936;9.270;2023-03-23T03:29:37;13.30;56.80
46752;DHT22;32497;48.936;9.270;2023-03-23T03:34:40;13.30;57.00
46752;DHT22;32497;48.936;9.270;2023-03-23T03:39:42;13.30;57.20
46752;DHT22;32497;48.936;9.270;2023-03-23T03:44:45;13.20;58.00
46752;DHT22;32497;48.936;9.270;2023-03-23T03:49:47;13.10;58.30
46752;DHT22;32497;48.936;9.270;2023-03-23T03:54:48;13.10;58.30
46752;DHT22;32497;48.936;9.270;2023-03-23T03:59:50;13.10;58.10
46752;DHT22;32497;48.936;9.270;2023-03-23T04:04:58;13.10;58.40
46752;DHT22;32497;48.936;9.270;2023-03-23T04:09:59;13.10;58.70
46752;DHT22;32497;48.936;9.270;2023-03-23T04:15:01;13.10;58.40
46752;DHT22;32497;48.936;9.270;2023-03-23T04:20:14;13.10;59.00
46752;DHT22;32497;48.936;9.270;2023-03-23T04:25:17;13.10;58.80
46752;DHT22;32497;48.936;9.270;2023-03-23T04:30:20;13.10;59.10
46752;DHT22;32497;48.936;9.270;2023-03-23T04:35:26;13.00;59.90
46752;DHT22;32497;48.936;9.270;2023-03-23T04:40:45;13.00;59.20
46752;DHT22;32497;48.936;9.270;2023-03-23T04:45:57;13.10;59.60
46752;DHT22;32497;48.936;9.270;2023-03-23T04:51:08;13.00;59.90
46752;DHT22;32497;48.936;9.270;2023-03-23T04:56:10;13.00;60.00
46752;DHT22;32497;48.936;9.270;2023-03-23T05:01:20;13.00;59.10
46752;DHT22;32497;48.936;9.270;2023-03-23T05:06:48;13.10;58.90
46752;DHT22;32497;48.936;9.270;2023-03-23T05:11:57;13.20;58.50
46752;DHT22;32497;48.936;9.270;2023-03-23T05:16:58;13.20;58.50
46752;DHT22;32497;48.936;9.270;2023-03-23T05:22:02;13.20;58.90
46752;DHT22;32497;48.936;9.270;2023-03-23T05:27:05;13.30;58.70
46752;DHT22;32497;48.936;9.270;2023-03-23T05:32:09;13.30;58.30
46752;DHT22;32497;48.936;9.270;2023-03-23T05:37:14;13.30;58.40
46752;DHT22;32497;48.936;9.270;2023-03-23T05:42:24;13.30;58.70
46752;DHT22;32497;48.936;9.270;2023-03-23T05:47:35;13.40;59.00
46752;DHT22;32497;48.936;9.270;2023-03-23T05:52:43;13.30;59.70
46752;DHT22;32497;48.936;9.270;2023-03-23T05:57:46;13.30;59.10
46752;DHT22;32497;48.936;9.270;2023-03-23T06:03:08;13.40;58.80
46752;DHT22;32497;48.936;9.270;2023-03-23T06:08:20;13.40;58.80
46752;DHT22;32497;48.936;9.270;2023-03-23T06:13:21;13.60;58.20
46752;DHT22;32497;48.936;9.270;2023-03-23T06:18:25;13.70;57.80
46752;DHT22;32497;48.936;9.270;2023-03-23T06:23:43;13.70;58.70
46752;DHT22;32497;48.936;9.270;2023-03-23T06:28:45;13.70;58.80
46752;DHT22;32497;48.936;9.270;2023-03-23T06:33:47;13.70;59.30
46752;DHT22;32497;48.936;9.270;2023-03-23T06:39:01;13.70;59.40
46752;DHT22;32497;48.936;9.270;2023-03-23T06:44:19;13.70;58.30
46752;DHT22;32497;48.936;9.270;2023-03-23T06:49:20;13.80;58.30
46752;DHT22;32497;48.936;9.270;2023-03-23T06:54:44;13.70;61.00
46752;DHT22;32497;48.936;9.270;2023-03-23T06:59:47;13.70;60.70
46752;DHT22;32497;48.936;9.270;2023-03-23T07:04:48;14.00;60.20
46752;DHT22;32497;48.936;9.270;2023-03-23T07:09:56;14.50;61.20
46752;DHT22;32497;48.936;9.270;2023-03-23T07:14:59;14.70;60.20
46752;DHT22;32497;48.936;9.270;2023-03-23T07:20:00;14.70;56.00
46752;DHT22;32497;48.936;9.270;2023-03-23T07:25:03;14.70;57.30
46752;DHT22;32497;48.936;9.270;2023-03-23T07:30:15;14.70;57.20
46752;DHT22;32497;48.936;9.270;2023-03-23T07:35:16;14.60;58.30
46752;DHT22;32497;48.936;9.270;2023-03-23T07:40:31;14.60;58.40
46752;DHT22;32497;48.936;9.270;2023-03-23T07:45:36;14.60;57.30
46752;DHT22;32497;48.936;9.270;2023-03-23T07:50:37;14.70;57.60
46752;DHT22;32497;48.936;9.270;2023-03-23T07:55:44;14.80;58.00
46752;DHT22;32497;48.936;9.270;2023-03-23T08:01:09;15.10;56.80
46752;DHT22;32497;48.936;9.270;2023-03-23T08:06:11;15.50;57.00
46752;DHT22;32497;48.936;9.270;2023-03-23T08:11:32;15.60;55.20
46752;DHT22;32497;48.936;9.270;2023-03-23T08:17:06;15.60;56.70
46752;DHT22;32497;48.936;9.270;2023-03-23T08:22:16;15.70;55.10
46752;DHT22;32497;48.936;9.270;2023-03-23T08:27:39;15.90;56.40
46752;DHT22;32497;48.936;9.270;2023-03-23T08:32:57;16.20;56.40
46752;DHT22;32497;48.936;9.270;2023-03-23T08:38:19;16.40;56.50
46752;DHT22;32497;48.936;9.270;2023-03-23T08:44:00;16.60;57.20
46752;DHT22;32497;48.936;9.270;2023-03-23T08:49:23;16.60;57.50
46752;DHT22;32497;48.936;9.270;2023-03-23T08:54:43;16.20;59.70
46752;DHT22;32497;48.936;9.270;2023-03-23T08:59:59;15.90;60.70
46752;DHT22;32497;48.936;9.270;2023-03-23T09:05:22;15.90;61.00
46752;DHT22;32497;48.936;9.270;2023-03-23T09:10:50;15.70;61.20
46752;DHT22;32497;48.936;9.270;2023-03-23T09:15:53;15.50;62.20
46752;DHT22;32497;48.936;9.270;2023-03-23T09:20:54;15.70;61.90
46752;DHT22;32497;48.936;9.270;2023-03-23T09:25:55;15.70;61.30
46752;DHT22;32497;48.936;9.270;2023-03-23T09:30:58;15.70;61.60
46752;DHT22;32497;48.936;9.270;2023-03-23T09:35:59;15.50;61.50
46752;DHT22;32497;48.936;9.270;2023-03-23T09:41:04;15.60;61.70
46752;DHT22;32497;48.936;9.270;2023-03-23T09:46:29;15.70;61.40
46752;DHT22;32497;48.936;9.270;2023-03-23T09:51:41;15.70;60.80
46752;DHT22;32497;48.936;9.270;2023-03-23T09:56:44;15.70;61.50
46752;DHT22;32497;48.936;9.270;2023-03-23T10:01:48;15.70;62.20
46752;DHT22;32497;48.936;9.270;2023-03-23T10:06:50;15.90;62.30
46752;DHT22;32497;48.936;9.270;2023-03-23T10:11:59;15.80;63.00
46752;DHT22;32497;48.936;9.270;2023-03-23T10:17:12;16.00;63.30
46752;DHT22;32497;48.936;9.270;2023-03-23T10:22:16;15.90;62.70
46752;DHT22;32497;48.936;9.270;2023-03-23T10:27:24;15.90;63.10
46752;DHT22;32497;48.936;9.270;2023-03-23T10:32:41;15.80;63.70
46752;DHT22;32497;48.936;9.270;2023-03-23T10:37:46;16.30;63.10
46752;DHT22;32497;48.936;9.270;2023-03-23T10:42:48;16.50;61.70
46752;DHT22;32497;48.936;9.270;2023-03-23T10:47:52;16.40;62.60
46752;DHT22;32497;48.936;9.270;2023-03-23T10:52:57;16.70;61.90
46752;DHT22;32497;48.936;9.270;2023-03-23T10:58:00;17.00;60.30
46752;DHT22;32497;48.936;9.270;2023-03-23T11:03:05;16.70;61.60
46752;DHT22;32497;48.936;9.270;2023-03-23T11:08:13;16.70;61.70
46752;DHT22;32497;48.936;9.270;2023-03-23T11:13:15;16.80;62.10
46752;DHT22;32497;48.936;9.270;2023-03-23T11:18:21;16.90;61.90
46752;DHT22;32497;48.936;9.270;2023-03-23T11:23:24;17.10;59.90
46752;DHT22;32497;48.936;9.270;2023-03-23T11:28:32;16.70;60.50
46752;DHT22;32497;48.936;9.270;2023-03-23T11:33:40;16.70;62.30
46752;DHT22;32497;48.936;9.270;2023-03-23T11:38:43;16.80;61.70
46752;DHT22;32497;48.936;9.270;2023-03-23T11:43:46;17.00;62.10
46752;DHT22;32497;48.936;9.270;2023-03-23T11:48:53;17.30;61.30
46752;DHT22;32497;48.936;9.270;2023-03-23T11:53:59;17.80;58.70
46752;DHT22;32497;48.936;9.270;2023-03-23T11:59:02;17.70;58.60
46752;DHT22;32497;48.936;9.270;2023-03-23T12:04:35;17.70;59.30
46752;DHT22;32497;48.936;9.270;2023-03-23T12:09:45;17.60;59.50
46752;DHT22;32497;48.936;9.270;2023-03-23T12:14:59;17.10;61.00
46752;DHT22;32497;48.936;9.270;2023-03-23T12:20:15;16.70;62.20
46752;DHT22;32497;48.936;9.270;2023-03-23T12:25:52;16.90;61.30
46752;DHT22;32497;48.936;9.270;2023-03-23T12:31:01;16.80;61.60
46752;DHT22;32497;48.936;9.270;2023-03-23T12:36:12;17.00;61.40
46752;DHT22;32497;48.936;9.270;2023-03-23T12:41:17;17.20;61.10
46752;DHT22;32497;48.936;9.270;2023-03-23T12:46:33;17.80;59.80
46752;DHT22;32497;48.936;9.270;2023-03-23T12:51:39;18.70;57.00
46752;DHT22;32497;48.936;9.270;2023-03-23T12:56:48;19.10;55.60
46752;DHT22;32497;48.936;9.270;2023-03-23T13:01:56;19.40;54.00
46752;DHT22;32497;48.936;9.270;2023-03-23T13:07:01;19.10;54.40
46752;DHT22;32497;48.936;9.270;2023-03-23T13:12:04;18.70;56.10
46752;DHT22;32497;48.936;9.270;2023-03-23T13:17:15;19.10;54.60
46752;DHT22;32497;48.936;9.270;2023-03-23T13:22:25;19.50;54.80
46752;DHT22;32497;48.936;9.270;2023-03-23T13:27:28;19.40;53.80
46752;DHT22;32497;48.936;9.270;2023-03-23T13:32:34;19.50;54.10
46752;DHT22;32497;48.936;9.270;2023-03-23T13:37:41;19.50;53.90
46752;DHT22;32497;48.936;9.270;2023-03-23T13:42:50;19.40;54.00
46752;DHT22;32497;48.936;9.270;2023-03-23T13:48:03;19.60;54.50
46752;DHT22;32497;48.936;9.270;2023-03-23T13:53:20;19.60;53.90
46752;DHT22;32497;48.936;9.270;2023-03-23T13:58:24;19.20;54.80
46752;DHT22;32497;48.936;9.270;2023-03-23T14:03:32;19.20;54.70
46752;DHT22;32497;48.936;9.270;2023-03-23T14:08:43;19.10;54.40
46752;DHT22;32497;48.936;9.270;2023-03-23T14:13:51;18.50;56.10
46752;DHT22;32497;48.936;9.270;2023-03-23T14:19:00;18.70;56.70
46752;DHT22;32497;48.936;9.270;2023-03-23T14:24:06;19.10;55.80
46752;DHT22;32497;48.936;9.270;2023-03-23T14:29:11;19.00;55.20
46752;DHT22;32497;48.936;9.270;2023-03-23T14:34:14;18.90;57.40
46752;DHT22;32497;48.936;9.270;2023-03-23T14:39:22;19.00;56.20
46752;DHT22;32497;48.936;9.270;2023-03-23T14:44:27;18.70;57.80
46752;DHT22;32497;48.936;9.270;2023-03-23T14:49:31;18.50;58.60
46752;DHT22;32497;48.936;9.270;2023-03-23T14:54:34;18.20;57.70
46752;DHT22;32497;48.936;9.270;2023-03-23T14:59:35;17.90;59.70
46752;DHT22;32497;48.936;9.270;2023-03-23T15:04:37;17.70;61.70
46752;DHT22;32497;48.936;9.270;2023-03-23T15:09:41;17.60;62.00
46752;DHT22;32497;48.936;9.270;2023-03-23T15:14:47;17.40;62.00
46752;DHT22;32497;48.936;9.270;2023-03-23T15:19:50;17.00;62.80
46752;DHT22;32497;48.936;9.270;2023-03-23T15:25:00;16.90;64.20
46752;DHT22;32497;48.936;9.270;2023-03-23T15:30:13;17.00;64.80
46752;DHT22;32497;48.936;9.270;2023-03-23T15:35:17;16.90;65.20
46752;DHT22;32497;48.936;9.270;2023-03-23T15:40:22;16.80;65.50
46752;DHT22;32497;48.936;9.270;2023-03-23T15:45:26;16.40;65.70
46752;DHT22;32497;48.936;9.270;2023-03-23T15:50:34;16.10;67.20
46752;DHT22;32497;48.936;9.270;2023-03-23T15:55:38;15.80;68.20
46752;DHT22;32497;48.936;9.270;2023-03-23T16:00:40;15.70;68.60
46752;DHT22;32497;48.936;9.270;2023-03-23T16:05:42;15.60;69.00
46752;DHT22;32497;48.936;9.270;2023-03-23T16:10:45;15.60;67.50
46752;DHT22;32497;48.936;9.270;2023-03-23T16:15:47;15.70;67.30
46752;DHT22;32497;48.936;9.270;2023-03-23T16:20:49;15.70;67.20
46752;DHT22;32497;48.936;9.270;2023-03-23T16:25:51;15.90;65.70
46752;DHT22;32497;48.936;9.270;2023-03-23T16:30:53;15.90;64.50
46752;DHT22;32497;48.936;9.270;2023-03-23T16:35:54;15.90;65.00
46752;DHT22;32497;48.936;9.270;2023-03-23T16:40:56;16.00;67.70
46752;DHT22;32497;48.936;9.270;2023-03-23T16:45:57;15.70;63.50
46752;DHT22;32497;48.936;9.270;2023-03-23T16:50:58;15.70;65.90
46752;DHT22;32497;48.936;9.270;2023-03-23T16:56:01;15.80;58.70
46752;DHT22;32497;48.936;9.270;2023-03-23T17:01:02;16.00;58.10
46752;DHT22;32497;48.936;9.270;2023-03-23T17:06:04;15.90;58.10
46752;DHT22;32497;48.936;9.270;2023-03-23T17:11:07;15.90;60.50
46752;DHT22;32497;48.936;9.270;2023-03-23T17:16:10;15.70;59.10
46752;DHT22;32497;48.936;9.270;2023-03-23T17:21:11;15.60;60.40
46752;DHT22;32497;48.936;9.270;2023-03-23T17:26:13;15.50;62.10
46752;DHT22;32497;48.936;9.270;2023-03-23T17:31:14;15.20;65.10
46752;DHT22;32497;48.936;9.270;2023-03-23T17:36:15;15.10;66.10
46752;DHT22;32497;48.936;9.270;2023-03-23T17:41:18;15.00;66.50
46752;DHT22;32497;48.936;9.270;2023-03-23T17:46:19;14.80;66.70
46752;DHT22;32497;48.936;9.270;2023-03-23T17:51:20;14.70;66.40
46752;DHT22;32497;48.936;9.270;2023-03-23T17:56:23;14.70;64.90
46752;DHT22;32497;48.936;9.270;2023-03-23T18:01:24;14.70;63.30
46752;DHT22;32497;48.936;9.270;2023-03-23T18:06:25;15.10;60.20
46752;DHT22;32497;48.936;9.270;2023-03-23T18:11:30;15.10;59.80
46752;DHT22;32497;48.936;9.270;2023-03-23T18:16:31;15.20;58.30
46752;DHT22;32497;48.936;9.270;2023-03-23T18:21:32;15.50;56.40
46752;DHT22;32497;48.936;9.270;2023-03-23T18:26:35;15.70;56.50
46752;DHT22;32497;48.936;9.270;2023-03-23T18:31:36;15.60;56.50
46752;DHT22;32497;48.936;9.270;2023-03-23T18:36:37;15.40;57.00
46752;DHT22;32497;48.936;9.270;2023-03-23T18:41:39;15.50;56.90
46752;DHT22;32497;48.936;9.270;2023-03-23T18:46:41;15.40;57.50
46752;DHT22;32497;48.936;9.270;2023-03-23T18:51:42;15.50;57.50
46752;DHT22;32497;48.936;9.270;2023-03-23T18:56:44;15.60;56.50
46752;DHT22;32497;48.936;9.270;2023-03-23T19:01:49;15.60;57.00
46752;DHT22;32497;48.936;9.270;2023-03-23T19:06:50;15.50;57.40
46752;DHT22;32497;48.936;9.270;2023-03-23T19:11:52;15.70;55.90
46752;DHT22;32497;48.936;9.270;2023-03-23T19:16:54;15.60;56.70
46752;DHT22;32497;48.936;9.270;2023-03-23T19:21:55;15.50;57.20
46752;DHT22;32497;48.936;9.270;2023-03-23T19:26:57;15.50;57.60
46752;DHT22;32497;48.936;9.270;2023-03-23T19:31:59;15.60;57.00
46752;DHT22;32497;48.936;9.270;2023-03-23T19:37:00;15.60;57.30
46752;DHT22;32497;48.936;9.270;2023-03-23T19:42:02;15.60;57.40
46752;DHT22;32497;48.936;9.270;2023-03-23T19:47:04;15.60;57.40
46752;DHT22;32497;48.936;9.270;2023-03-23T19:52:05;15.70;57.20
46752;DHT22;32497;48.936;9.270;2023-03-23T19:57:08;15.70;57.50
46752;DHT22;32497;48.936;9.270;2023-03-23T20:02:10;15.60;57.60
46752;DHT22;32497;48.936;9.270;2023-03-23T20:07:11;15.60;57.80
46752;DHT22;32497;48.936;9.270;2023-03-23T20:12:14;15.60;58.00
46752;DHT22;32497;48.936;9.270;2023-03-23T20:17:15;15.40;58.40
46752;DHT22;32497;48.936;9.270;2023-03-23T20:22:16;15.40;58.50
46752;DHT22;32497;48.936;9.270;2023-03-23T20:27:18;15.40;58.80
46752;DHT22;32497;48.936;9.270;2023-03-23T20:32:20;15.30;58.70
46752;DHT22;32497;48.936;9.270;2023-03-23T20:37:21;15.30;59.10
46752;DHT22;32497;48.936;9.270;2023-03-23T20:42:23;15.20;59.60
46752;DHT22;32497;48.936;9.270;2023-03-23T20:47:24;15.20;59.70
46752;DHT22;32497;48.936;9.270;2023-03-23T20:52:26;15.20;59.10
46752;DHT22;32497;48.936;9.270;2023-03-23T20:57:28;15.10;59.50
46752;DHT22;32497;48.936;9.270;2023-03-23T21:02:29;15.20;59.30
46752;DHT22;32497;48.936;9.270;2023-03-23T21:07:30;15.20;59.80
46752;DHT22;32497;48.936;9.270;2023-03-23T21:12:33;15.20;59.90
46752;DHT22;32497;48.936;9.270;2023-03-23T21:17:34;15.20;59.60
46752;DHT22;32497;48.936;9.270;2023-03-23T21:22:35;15.10;60.00
46752;DHT22;32497;48.936;9.270;2023-03-23T21:27:38;14.90;60.50
46752;DHT22;32497;48.936;9.270;2023-03-23T21:32:39;14.80;60.90
46752;DHT22;32497;48.936;9.270;2023-03-23T21:37:40;14.70;61.20
46752;DHT22;32497;48.936;9.270;2023-03-23T21:42:43;14.70;61.10
46752;DHT22;32497;48.936;9.270;2023-03-23T21:47:45;14.60;60.90
46752;DHT22;32497;48.936;9.270;2023-03-23T21:52:46;14.70;60.90
46752;DHT22;32497;48.936;9.270;2023-03-23T21:57:48;14.70;61.40
46752;DHT22;32497;48.936;9.270;2023-03-23T22:02:50;14.70;61.50
46752;DHT22;32497;48.936;9.270;2023-03-23T22:07:51;14.50;62.20
46752;DHT22;32497;48.936;9.270;2023-03-23T22:12:53;14.40;61.80
46752;DHT22;32497;48.936;9.270;2023-03-23T22:17:54;14.50;61.40
46752;DHT22;32497;48.936;9.270;2023-03-23T22:22:56;14.40;61.90
46752;DHT22;32497;48.936;9.270;2023-03-23T22:27:58;14.20;63.40
46752;DHT22;32497;48.936;9.270;2023-03-23T22:33:00;13.90;64.40
46752;DHT22;32497;48.936;9.270;2023-03-23T22:38:01;13.70;64.70
46752;DHT22;32497;48.936;9.270;2023-03-23T22:43:04;13.70;65.00
46752;DHT22;32497;48.936;9.270;2023-03-23T22:48:05;13.70;65.00
46752;DHT22;32497;48.936;9.270;2023-03-23T22:53:06;13.80;64.80
46752;DHT22;32497;48.936;9.270;2023-03-23T22:58:09;13.90;64.30
46752;DHT22;32497;48.936;9.270;2023-03-23T23:03:11;14.00;65.10
46752;DHT22;32497;48.936;9.270;2023-03-23T23:08:12;14.10;65.60
46752;DHT22;32497;48.936;9.270;2023-03-23T23:13:15;13.90;69.40
46752;DHT22;32497;48.936;9.270;2023-03-23T23:18:16;13.60;74.60
46752;DHT22;32497;48.936;9.270;2023-03-23T23:23:18;13.20;76.90
46752;DHT22;32497;48.936;9.270;2023-03-23T23:28:21;12.80;75.80
46752;DHT22;32497;48.936;9.270;2023-03-23T23:33:22;12.70;79.70
46752;DHT22;32497;48.936;9.270;2023-03-23T23:38:23;12.60;80.50
46752;DHT22;32497;48.936;9.270;2023-03-23T23:43:26;12.50;80.70
46752;DHT22;32497;48.936;9.270;2023-03-23T23:48:27;12.40;81.10
46752;DHT22;32497;48.936;9.270;2023-03-23T23:53:28;12.40;81.40
46752;DHT22;32497;48.936;9.270;2023-03-23T23:58:31;12.40;81.70
